Time,TemperatureF,DewpointF,PressureIn,WindDirection,WindDirectionDegrees,WindSpeedMPH,WindSpeedGustMPH,Humidity,HourlyPrecipIn,Conditions,Clouds,dailyrainin,SoftwareType,DateUTC
2013-04-09 00:01:00,44.3,40.7,30.25,SW,225,1.3,1.8,87,0.00,,,0.00,WUHU216HW,2013-04-09 07:01:00,
2013-04-09 00:06:00,44.1,40.5,30.25,SW,225,1.8,1.8,87,0.00,,,0.00,WUHU216HW,2013-04-09 07:06:00,
2013-04-09 00:11:00,43.9,40.3,30.25,SW,225,1.1,1.8,87,0.00,,,0.00,WUHU216HW,2013-04-09 07:11:00,
2013-04-09 00:16:00,43.7,40.2,30.25,SW,225,1.1,1.8,87,0.00,,,0.00,WUHU216HW,2013-04-09 07:16:00,
2013-04-09 00:21:00,43.6,40.0,30.25,SW,225,1.1,1.8,87,0.00,,,0.00,WUHU216HW,2013-04-09 07:21:00,
2013-04-09 00:26:00,43.6,40.0,30.26,SW,225,1.1,1.8,87,0.00,,,0.00,WUHU216HW,2013-04-09 07:26:00,
2013-04-09 00:31:00,43.2,39.6,30.26,SW,225,1.6,1.8,87,0.00,,,0.00,WUHU216HW,2013-04-09 07:31:00,
2013-04-09 00:36:00,43.0,39.4,30.26,SW,225,1.8,2.0,87,0.00,,,0.00,WUHU216HW,2013-04-09 07:36:00,
2013-04-09 00:41:00,42.8,39.3,30.26,SW,225,1.1,2.0,87,0.00,,,0.00,WUHU216HW,2013-04-09 07:41:00,
2013-04-09 00:46:00,42.8,39.3,30.26,SW,225,0.7,1.8,87,0.00,,,0.00,WUHU216HW,2013-04-09 07:46:00,
2013-04-09 00:51:00,42.8,39.3,30.27,WSW,248,1.8,2.2,87,0.00,,,0.00,WUHU216HW,2013-04-09 07:51:00,
2013-04-09 00:56:00,42.7,39.1,30.26,WSW,248,2.5,4.0,87,0.00,,,0.00,WUHU216HW,2013-04-09 07:56:00,
2013-04-09 01:01:00,42.5,38.9,30.26,WSW,248,1.8,4.0,87,0.00,,,0.00,WUHU216HW,2013-04-09 08:01:00,
2013-04-09 01:06:00,42.5,38.9,30.26,SW,225,1.1,2.2,87,0.00,,,0.00,WUHU216HW,2013-04-09 08:06:00,
2013-04-09 01:12:00,42.3,38.7,30.26,SW,225,0.4,1.3,87,0.00,,,0.00,WUHU216HW,2013-04-09 08:12:00,
2013-04-09 01:17:00,42.1,38.5,30.26,SW,225,0.4,1.1,87,0.00,,,0.00,WUHU216HW,2013-04-09 08:17:00,
2013-04-09 01:22:00,42.1,38.5,30.26,SW,225,0.4,1.8,87,0.00,,,0.00,WUHU216HW,2013-04-09 08:22:00,
2013-04-09 01:27:00,41.9,38.4,30.27,SW,225,0.9,1.8,87,0.00,,,0.00,WUHU216HW,2013-04-09 08:27:00,
2013-04-09 01:32:00,41.8,38.2,30.27,SW,225,0.2,1.3,87,0.00,,,0.00,WUHU216HW,2013-04-09 08:32:00,
2013-04-09 01:37:00,41.6,38.0,30.28,SW,225,0.4,1.6,87,0.00,,,0.00,WUHU216HW,2013-04-09 08:37:00,
2013-04-09 01:42:00,41.4,37.8,30.28,SW,225,1.1,1.6,87,0.00,,,0.00,WUHU216HW,2013-04-09 08:42:00,
2013-04-09 01:47:00,41.4,38.1,30.28,SW,225,0.7,1.3,88,0.00,,,0.00,WUHU216HW,2013-04-09 08:47:00,
2013-04-09 01:52:00,41.2,37.9,30.28,SW,225,1.1,1.3,88,0.00,,,0.00,WUHU216HW,2013-04-09 08:52:00,
2013-04-09 01:57:00,41.2,37.9,30.28,SW,225,0.9,1.1,88,0.00,,,0.00,WUHU216HW,2013-04-09 08:57:00,
2013-04-09 02:02:00,41.2,37.9,30.28,SW,225,0.4,1.1,88,0.00,,,0.00,WUHU216HW,2013-04-09 09:02:00,
2013-04-09 02:07:00,41.0,37.7,30.28,SW,225,0.4,1.1,88,0.00,,,0.00,WUHU216HW,2013-04-09 09:07:00,
2013-04-09 02:12:00,41.0,37.7,30.28,SW,225,1.1,1.3,88,0.00,,,0.00,WUHU216HW,2013-04-09 09:12:00,
2013-04-09 02:17:00,40.9,37.5,30.28,SW,225,1.1,1.8,88,0.00,,,0.00,WUHU216HW,2013-04-09 09:17:00,
2013-04-09 02:22:00,40.9,37.5,30.28,SW,225,1.3,1.8,88,0.00,,,0.00,WUHU216HW,2013-04-09 09:22:00,
2013-04-09 02:27:00,40.7,37.4,30.28,WSW,248,1.8,3.1,88,0.00,,,0.00,WUHU216HW,2013-04-09 09:27:00,
2013-04-09 02:32:00,40.7,37.4,30.28,WSW,248,1.6,3.1,88,0.00,,,0.00,WUHU216HW,2013-04-09 09:32:00,
2013-04-09 02:37:00,40.7,37.7,30.28,WSW,248,1.1,1.8,89,0.00,,,0.00,WUHU216HW,2013-04-09 09:37:00,
2013-04-09 02:42:00,40.7,37.7,30.27,WSW,248,1.3,1.6,89,0.00,,,0.00,WUHU216HW,2013-04-09 09:42:00,
2013-04-09 02:47:00,40.7,37.7,30.27,SW,225,1.3,1.8,89,0.00,,,0.00,WUHU216HW,2013-04-09 09:47:00,
2013-04-09 02:52:00,40.7,37.7,30.28,WSW,248,2.2,2.2,89,0.00,,,0.00,WUHU216HW,2013-04-09 09:52:00,
2013-04-09 02:57:00,40.7,37.7,30.28,WSW,248,1.8,2.2,89,0.00,,,0.00,WUHU216HW,2013-04-09 09:57:00,
2013-04-09 03:02:00,40.7,37.7,30.27,WSW,248,1.3,2.2,89,0.00,,,0.00,WUHU216HW,2013-04-09 10:02:00,
2013-04-09 03:07:00,40.7,37.7,30.28,WSW,248,1.3,2.0,89,0.00,,,0.00,WUHU216HW,2013-04-09 10:07:00,
2013-04-09 03:12:00,40.5,37.5,30.28,WSW,248,1.3,1.8,89,0.00,,,0.00,WUHU216HW,2013-04-09 10:12:00,
2013-04-09 03:17:00,40.5,37.5,30.28,WSW,248,1.6,1.8,89,0.00,,,0.00,WUHU216HW,2013-04-09 10:17:00,
2013-04-09 03:22:00,40.3,37.4,30.28,WSW,248,1.6,2.0,89,0.00,,,0.00,WUHU216HW,2013-04-09 10:22:00,
2013-04-09 03:27:00,40.3,37.4,30.28,WSW,248,2.2,2.5,89,0.00,,,0.00,WUHU216HW,2013-04-09 10:27:00,
2013-04-09 03:32:00,40.3,37.4,30.28,SW,225,1.6,2.9,89,0.00,,,0.00,WUHU216HW,2013-04-09 10:32:00,
2013-04-09 03:37:00,40.5,37.8,30.28,SW,225,1.8,2.9,90,0.00,,,0.00,WUHU216HW,2013-04-09 10:37:00,
2013-04-09 03:42:00,40.7,38.0,30.28,SW,225,1.8,1.8,90,0.00,,,0.00,WUHU216HW,2013-04-09 10:42:00,
2013-04-09 03:47:00,40.7,38.0,30.28,SW,225,1.1,2.0,90,0.00,,,0.00,WUHU216HW,2013-04-09 10:47:00,
2013-04-09 03:53:00,40.7,38.0,30.28,SW,225,1.1,2.0,90,0.00,,,0.00,WUHU216HW,2013-04-09 10:53:00,
2013-04-09 03:59:00,40.7,38.0,30.28,SW,225,1.3,2.2,90,0.00,,,0.00,WUHU216HW,2013-04-09 10:59:00,
2013-04-09 04:04:00,41.0,38.3,30.27,WSW,248,1.1,2.7,90,0.00,,,0.00,WUHU216HW,2013-04-09 11:04:00,
2013-04-09 04:10:00,41.2,38.5,30.27,WSW,248,1.1,2.7,90,0.00,,,0.00,WUHU216HW,2013-04-09 11:10:00,
2013-04-09 04:15:00,41.4,38.7,30.28,SW,225,0.9,2.5,90,0.00,,,0.00,WUHU216HW,2013-04-09 11:15:00,
2013-04-09 04:20:00,41.4,38.7,30.28,SW,225,0.0,1.1,90,0.00,,,0.00,WUHU216HW,2013-04-09 11:20:00,
2013-04-09 04:25:00,41.4,38.7,30.28,SW,225,1.1,1.8,90,0.00,,,0.00,WUHU216HW,2013-04-09 11:25:00,
2013-04-09 04:30:00,41.4,38.7,30.28,WSW,248,0.7,2.2,90,0.00,,,0.00,WUHU216HW,2013-04-09 11:30:00,
2013-04-09 04:35:00,41.6,38.9,30.28,SW,225,0.4,2.2,90,0.00,,,0.00,WUHU216HW,2013-04-09 11:35:00,
2013-04-09 04:40:00,41.6,38.9,30.28,SW,225,1.6,1.8,90,0.00,,,0.00,WUHU216HW,2013-04-09 11:40:00,
2013-04-09 04:45:00,41.6,38.9,30.29,WSW,248,1.1,2.0,90,0.00,,,0.00,WUHU216HW,2013-04-09 11:45:00,
2013-04-09 04:50:00,41.6,38.9,30.29,SW,225,0.7,2.0,90,0.00,,,0.00,WUHU216HW,2013-04-09 11:50:00,
2013-04-09 04:55:00,41.6,38.9,30.29,SW,225,0.7,1.8,90,0.00,,,0.00,WUHU216HW,2013-04-09 11:55:00,
2013-04-09 05:00:00,41.6,38.9,30.29,SW,225,1.6,1.8,90,0.00,,,0.00,WUHU216HW,2013-04-09 12:00:00,
2013-04-09 05:05:00,41.6,38.9,30.29,SW,225,1.3,1.8,90,0.00,,,0.00,WUHU216HW,2013-04-09 12:05:00,
2013-04-09 05:10:00,41.8,39.1,30.28,SW,225,3.6,3.8,90,0.00,,,0.00,WUHU216HW,2013-04-09 12:10:00,
2013-04-09 05:15:00,41.8,39.1,30.29,SW,225,1.1,3.8,90,0.00,,,0.00,WUHU216HW,2013-04-09 12:15:00,
2013-04-09 05:20:00,41.9,39.2,30.29,SW,225,1.6,3.6,90,0.00,,,0.00,WUHU216HW,2013-04-09 12:20:00,
2013-04-09 05:25:00,41.9,39.2,30.29,WSW,248,1.8,2.0,90,0.00,,,0.00,WUHU216HW,2013-04-09 12:25:00,
2013-04-09 05:30:00,42.1,39.4,30.29,SW,225,0.4,2.0,90,0.00,,,0.00,WUHU216HW,2013-04-09 12:30:00,
2013-04-09 05:35:00,41.9,39.2,30.28,SSW,203,1.6,3.4,90,0.00,,,0.00,WUHU216HW,2013-04-09 12:35:00,
2013-04-09 05:40:00,41.9,39.2,30.28,SSW,203,1.3,3.4,90,0.00,,,0.00,WUHU216HW,2013-04-09 12:40:00,
2013-04-09 05:45:00,41.9,39.2,30.28,WSW,248,1.8,3.4,90,0.00,,,0.00,WUHU216HW,2013-04-09 12:45:00,
2013-04-09 05:50:00,41.9,39.2,30.28,WSW,248,1.8,2.0,90,0.00,,,0.00,WUHU216HW,2013-04-09 12:50:00,
2013-04-09 05:55:00,41.9,39.2,30.28,WSW,248,1.8,2.5,90,0.00,,,0.00,WUHU216HW,2013-04-09 12:55:00,
2013-04-09 06:00:00,41.8,39.1,30.28,WSW,248,0.7,2.5,90,0.00,,,0.00,WUHU216HW,2013-04-09 13:00:00,
2013-04-09 06:05:00,41.8,39.1,30.28,SW,225,1.3,2.0,90,0.00,,,0.00,WUHU216HW,2013-04-09 13:05:00,
2013-04-09 06:10:00,41.6,38.9,30.28,SW,225,0.4,1.8,90,0.00,,,0.00,WUHU216HW,2013-04-09 13:10:00,
2013-04-09 06:15:00,41.6,38.9,30.28,SW,225,0.0,1.6,90,0.00,,,0.00,WUHU216HW,2013-04-09 13:15:00,
2013-04-09 06:20:00,41.4,38.7,30.28,WSW,248,0.4,1.1,90,0.00,,,0.00,WUHU216HW,2013-04-09 13:20:00,
2013-04-09 06:25:00,41.4,38.7,30.29,WSW,248,0.4,1.1,90,0.00,,,0.00,WUHU216HW,2013-04-09 13:25:00,
2013-04-09 06:30:00,41.4,38.7,30.28,WSW,248,0.7,1.1,90,0.00,,,0.00,WUHU216HW,2013-04-09 13:30:00,
2013-04-09 06:35:00,41.4,38.7,30.28,WSW,248,0.2,1.1,90,0.00,,,0.00,WUHU216HW,2013-04-09 13:35:00,
2013-04-09 06:40:00,41.4,38.7,30.28,WSW,248,0.0,0.7,90,0.00,,,0.00,WUHU216HW,2013-04-09 13:40:00,
2013-04-09 06:45:00,41.4,38.7,30.29,WSW,248,0.0,0.4,90,0.00,,,0.00,WUHU216HW,2013-04-09 13:45:00,
2013-04-09 06:50:00,41.4,38.7,30.28,WSW,248,0.0,0.4,90,0.00,,,0.00,WUHU216HW,2013-04-09 13:50:00,
2013-04-09 06:55:00,41.4,38.7,30.28,WSW,248,0.4,0.4,90,0.00,,,0.00,WUHU216HW,2013-04-09 13:55:00,
2013-04-09 07:00:00,41.4,38.7,30.29,WSW,248,0.9,0.9,90,0.00,,,0.00,WUHU216HW,2013-04-09 14:00:00,
2013-04-09 07:05:00,41.4,38.7,30.29,SW,225,0.9,0.9,90,0.00,,,0.00,WUHU216HW,2013-04-09 14:05:00,
2013-04-09 07:10:00,41.6,38.9,30.29,West,270,0.0,1.1,90,0.00,,,0.00,WUHU216HW,2013-04-09 14:10:00,
2013-04-09 07:15:00,41.8,39.1,30.29,West,270,0.7,1.1,90,0.00,,,0.00,WUHU216HW,2013-04-09 14:15:00,
2013-04-09 07:20:00,41.9,39.2,30.29,West,270,0.2,1.1,90,0.00,,,0.00,WUHU216HW,2013-04-09 14:20:00,
2013-04-09 07:25:00,42.1,39.4,30.30,West,270,0.0,1.1,90,0.00,,,0.00,WUHU216HW,2013-04-09 14:25:00,
2013-04-09 07:30:00,42.1,39.4,30.30,WSW,248,0.4,0.7,90,0.00,,,0.00,WUHU216HW,2013-04-09 14:30:00,
2013-04-09 07:35:00,42.3,39.6,30.30,WSW,248,0.4,0.7,90,0.00,,,0.00,WUHU216HW,2013-04-09 14:35:00,
2013-04-09 07:40:00,42.3,39.6,30.30,WSW,248,0.0,0.7,90,0.00,,,0.00,WUHU216HW,2013-04-09 14:40:00,
2013-04-09 07:45:00,42.5,39.8,30.30,WSW,248,0.0,0.4,90,0.00,,,0.00,WUHU216HW,2013-04-09 14:45:00,
2013-04-09 07:50:00,42.7,40.0,30.30,WSW,248,0.4,0.4,90,0.00,,,0.00,WUHU216HW,2013-04-09 14:50:00,
2013-04-09 07:55:00,42.8,40.1,30.30,WSW,248,0.7,0.9,90,0.00,,,0.00,WUHU216HW,2013-04-09 14:55:00,
2013-04-09 08:00:00,42.8,40.4,30.30,WSW,248,0.2,0.9,91,0.00,,,0.00,WUHU216HW,2013-04-09 15:00:00,
2013-04-09 08:06:00,43.2,40.8,30.30,WSW,248,0.0,0.7,91,0.00,,,0.00,WUHU216HW,2013-04-09 15:06:00,
2013-04-09 08:11:00,43.6,41.1,30.30,WSW,248,0.0,0.4,91,0.00,,,0.00,WUHU216HW,2013-04-09 15:11:00,
2013-04-09 08:16:00,43.7,41.3,30.30,West,270,0.4,1.1,91,0.00,,,0.00,WUHU216HW,2013-04-09 15:16:00,
2013-04-09 08:21:00,44.1,41.7,30.30,SW,225,1.1,2.9,91,0.00,,,0.00,WUHU216HW,2013-04-09 15:21:00,
2013-04-09 08:26:00,44.3,41.6,30.30,SSE,158,0.9,2.9,90,0.00,,,0.00,WUHU216HW,2013-04-09 15:26:00,
2013-04-09 08:31:00,44.3,41.6,30.30,WSW,248,0.4,2.9,90,0.00,,,0.00,WUHU216HW,2013-04-09 15:31:00,
2013-04-09 08:36:00,44.3,41.6,30.30,SSW,203,1.3,2.9,90,0.00,,,0.00,WUHU216HW,2013-04-09 15:36:00,
2013-04-09 08:41:00,44.5,41.8,30.30,SSW,203,1.1,3.4,90,0.00,,,0.00,WUHU216HW,2013-04-09 15:41:00,
2013-04-09 08:46:00,44.8,42.4,30.30,WSW,248,0.4,3.4,91,0.00,,,0.00,WUHU216HW,2013-04-09 15:46:00,
2013-04-09 08:51:00,45.0,42.6,30.29,WSW,248,2.5,3.4,91,0.00,,,0.00,WUHU216HW,2013-04-09 15:51:00,
2013-04-09 08:56:00,45.5,43.1,30.30,WSW,248,1.8,3.8,91,0.00,,,0.00,WUHU216HW,2013-04-09 15:56:00,
2013-04-09 09:01:00,45.7,43.3,30.30,ESE,113,0.4,3.8,91,0.00,,,0.00,WUHU216HW,2013-04-09 16:01:00,
2013-04-09 09:06:00,45.9,43.5,30.29,SSE,158,0.0,2.9,91,0.00,,,0.00,WUHU216HW,2013-04-09 16:06:00,
2013-04-09 09:11:00,46.4,43.7,30.29,SSW,203,1.3,4.0,90,0.00,,,0.00,WUHU216HW,2013-04-09 16:11:00,
2013-04-09 09:16:00,46.6,43.9,30.29,SSW,203,0.7,4.0,90,0.00,,,0.00,WUHU216HW,2013-04-09 16:16:00,
2013-04-09 09:21:00,46.8,43.8,30.29,SSE,158,0.2,3.6,89,0.00,,,0.00,WUHU216HW,2013-04-09 16:21:00,
2013-04-09 09:26:00,47.2,44.2,30.29,SSW,203,1.1,3.6,89,0.00,,,0.00,WUHU216HW,2013-04-09 16:26:00,
2013-04-09 09:31:00,47.2,43.8,30.29,SW,225,1.8,3.1,88,0.00,,,0.00,WUHU216HW,2013-04-09 16:31:00,
2013-04-09 09:36:00,47.5,44.2,30.29,SSW,203,1.1,4.7,88,0.00,,,0.00,WUHU216HW,2013-04-09 16:36:00,
2013-04-09 09:41:00,47.7,44.4,30.29,WSW,248,1.3,4.7,88,0.00,,,0.00,WUHU216HW,2013-04-09 16:41:00,
2013-04-09 09:46:00,47.9,44.2,30.29,SW,225,3.8,3.8,87,0.00,,,0.00,WUHU216HW,2013-04-09 16:46:00,
2013-04-09 09:51:00,47.9,44.2,30.30,SW,225,2.9,4.5,87,0.00,,,0.00,WUHU216HW,2013-04-09 16:51:00,
2013-04-09 09:57:00,48.1,44.4,30.30,SW,225,2.0,4.5,87,0.00,,,0.00,WUHU216HW,2013-04-09 16:57:00,
2013-04-09 10:02:00,48.2,44.3,30.30,SSW,203,3.6,4.3,86,0.00,,,0.00,WUHU216HW,2013-04-09 17:02:00,
2013-04-09 10:07:00,48.4,44.4,30.30,SSW,203,3.4,4.3,86,0.00,,,0.00,WUHU216HW,2013-04-09 17:07:00,
2013-04-09 10:12:00,48.4,44.4,30.30,SSE,158,0.7,3.8,86,0.00,,,0.00,WUHU216HW,2013-04-09 17:12:00,
2013-04-09 10:17:00,48.4,44.1,30.30,WSW,248,1.6,3.8,85,0.00,,,0.00,WUHU216HW,2013-04-09 17:17:00,
2013-04-09 10:22:00,48.6,44.6,30.30,SW,225,1.8,2.9,86,0.00,,,0.00,WUHU216HW,2013-04-09 17:22:00,
2013-04-09 10:27:00,48.6,44.3,30.30,SW,225,1.3,2.9,85,0.00,,,0.00,WUHU216HW,2013-04-09 17:27:00,
2013-04-09 10:32:00,48.6,44.3,30.31,West,270,0.9,3.1,85,0.00,,,0.00,WUHU216HW,2013-04-09 17:32:00,
2013-04-09 10:37:00,48.6,43.9,30.31,WSW,248,2.9,4.0,84,0.00,,,0.00,WUHU216HW,2013-04-09 17:37:00,
2013-04-09 10:42:00,48.8,44.1,30.31,WSW,248,2.5,4.0,84,0.00,,,0.00,WUHU216HW,2013-04-09 17:42:00,
2013-04-09 10:47:00,49.0,44.3,30.31,SE,135,1.6,5.1,84,0.00,,,0.00,WUHU216HW,2013-04-09 17:47:00,
2013-04-09 10:52:00,49.1,44.1,30.31,WSW,248,2.0,6.9,83,0.00,,,0.00,WUHU216HW,2013-04-09 17:52:00,
2013-04-09 10:57:00,49.1,43.8,30.31,SSW,203,1.8,6.9,82,0.00,,,0.00,WUHU216HW,2013-04-09 17:57:00,
2013-04-09 11:02:00,49.1,44.1,30.31,SW,225,0.4,4.7,83,0.00,,,0.00,WUHU216HW,2013-04-09 18:02:00,
2013-04-09 11:07:00,49.1,44.1,30.31,SW,225,3.4,4.0,83,0.00,,,0.00,WUHU216HW,2013-04-09 18:07:00,
2013-04-09 11:12:00,49.1,43.8,30.31,WSW,248,3.1,4.0,82,0.00,,,0.00,WUHU216HW,2013-04-09 18:12:00,
2013-04-09 11:17:00,49.1,43.8,30.31,WSW,248,2.0,4.0,82,0.00,,,0.00,WUHU216HW,2013-04-09 18:17:00,
2013-04-09 11:22:00,49.1,44.1,30.32,West,270,1.1,4.5,83,0.00,,,0.00,WUHU216HW,2013-04-09 18:22:00,
2013-04-09 11:27:00,49.3,44.0,30.32,WSW,248,3.4,4.5,82,0.00,,,0.00,WUHU216HW,2013-04-09 18:27:00,
2013-04-09 11:32:00,49.5,44.2,30.32,WSW,248,0.9,3.4,82,0.00,,,0.00,WUHU216HW,2013-04-09 18:32:00,
2013-04-09 11:37:00,49.7,44.4,30.32,NNE,23,0.4,4.7,82,0.00,,,0.00,WUHU216HW,2013-04-09 18:37:00,
2013-04-09 11:42:00,50.0,44.7,30.32,SE,135,1.8,4.7,82,0.00,,,0.00,WUHU216HW,2013-04-09 18:42:00,
2013-04-09 11:47:00,50.2,44.9,30.31,SW,225,1.1,4.3,82,0.00,,,0.00,WUHU216HW,2013-04-09 18:47:00,
2013-04-09 11:52:00,50.4,44.7,30.31,East,90,0.9,5.6,81,0.00,,,0.00,WUHU216HW,2013-04-09 18:52:00,
2013-04-09 11:57:00,50.6,45.3,30.31,SW,225,2.5,5.6,82,0.00,,,0.00,WUHU216HW,2013-04-09 18:57:00,
2013-04-09 12:02:00,50.8,45.5,30.31,WSW,248,1.1,2.9,82,0.00,,,0.00,WUHU216HW,2013-04-09 19:02:00,
2013-04-09 12:07:00,50.9,45.3,30.31,SSE,158,0.9,2.9,81,0.00,,,0.00,WUHU216HW,2013-04-09 19:07:00,
2013-04-09 12:12:00,50.9,45.3,30.31,SW,225,0.7,4.5,81,0.00,,,0.00,WUHU216HW,2013-04-09 19:12:00,
2013-04-09 12:17:00,50.8,44.8,30.32,SW,225,1.8,4.5,80,0.00,,,0.00,WUHU216HW,2013-04-09 19:17:00,
2013-04-09 12:22:00,50.8,44.8,30.31,SSE,158,3.1,4.0,80,0.00,,,0.00,WUHU216HW,2013-04-09 19:22:00,
2013-04-09 12:27:00,50.8,44.8,30.31,South,180,1.8,3.8,80,0.00,,,0.00,WUHU216HW,2013-04-09 19:27:00,
2013-04-09 12:32:00,50.8,44.8,30.31,SSW,203,0.4,5.4,80,0.00,,,0.00,WUHU216HW,2013-04-09 19:32:00,
2013-04-09 12:37:00,50.8,44.8,30.30,ESE,113,2.2,5.4,80,0.00,,,0.00,WUHU216HW,2013-04-09 19:37:00,
2013-04-09 12:42:00,50.8,44.8,30.30,SE,135,2.0,3.8,80,0.00,,,0.00,WUHU216HW,2013-04-09 19:42:00,
2013-04-09 12:48:00,50.8,44.8,30.30,West,270,0.4,3.8,80,0.00,,,0.00,WUHU216HW,2013-04-09 19:48:00,
2013-04-09 12:53:00,50.6,44.6,30.31,SE,135,0.0,3.8,80,0.00,,,0.00,WUHU216HW,2013-04-09 19:53:00,
2013-04-09 12:58:00,50.6,44.6,30.30,ENE,68,1.1,3.8,80,0.00,,,0.00,WUHU216HW,2013-04-09 19:58:00,
2013-04-09 13:03:00,50.2,44.3,30.30,WNW,293,0.4,4.0,80,0.00,,,0.00,WUHU216HW,2013-04-09 20:03:00,
2013-04-09 13:08:00,50.0,44.4,30.30,SSE,158,0.4,4.0,81,0.00,,,0.00,WUHU216HW,2013-04-09 20:08:00,
2013-04-09 13:13:00,50.0,44.7,30.30,WSW,248,0.9,2.7,82,0.00,,,0.00,WUHU216HW,2013-04-09 20:13:00,
2013-04-09 13:18:00,50.0,44.7,30.30,SW,225,0.4,2.0,82,0.00,,,0.00,WUHU216HW,2013-04-09 20:18:00,
2013-04-09 13:23:00,50.0,44.4,30.30,SW,225,1.8,3.6,81,0.00,,,0.00,WUHU216HW,2013-04-09 20:23:00,
2013-04-09 13:28:00,50.2,44.6,30.30,WSW,248,2.2,4.9,81,0.00,,,0.00,WUHU216HW,2013-04-09 20:28:00,
2013-04-09 13:33:00,50.0,44.4,30.30,SW,225,2.5,4.9,81,0.00,,,0.00,WUHU216HW,2013-04-09 20:33:00,
2013-04-09 13:38:00,50.4,44.5,30.30,WSW,248,1.3,4.0,80,0.00,,,0.00,WUHU216HW,2013-04-09 20:38:00,
2013-04-09 13:43:00,50.2,44.3,30.30,WSW,248,1.8,4.0,80,0.00,,,0.00,WUHU216HW,2013-04-09 20:43:00,
2013-04-09 13:48:00,50.4,44.5,30.29,West,270,1.8,3.6,80,0.00,,,0.00,WUHU216HW,2013-04-09 20:48:00,
2013-04-09 13:53:00,50.8,44.8,30.29,WSW,248,2.5,3.6,80,0.00,,,0.00,WUHU216HW,2013-04-09 20:53:00,
2013-04-09 13:58:00,51.3,45.4,30.29,WSW,248,1.6,5.1,80,0.00,,,0.00,WUHU216HW,2013-04-09 20:58:00,
2013-04-09 14:03:00,51.5,45.5,30.29,SW,225,0.2,5.1,80,0.00,,,0.00,WUHU216HW,2013-04-09 21:03:00,
2013-04-09 14:08:00,51.7,45.0,30.29,SSW,203,2.2,6.9,78,0.00,,,0.00,WUHU216HW,2013-04-09 21:08:00,
2013-04-09 14:13:00,51.5,44.8,30.29,WSW,248,2.9,7.8,78,0.00,,,0.00,WUHU216HW,2013-04-09 21:13:00,
2013-04-09 14:18:00,51.7,45.0,30.29,SSW,203,2.9,7.8,78,0.00,,,0.00,WUHU216HW,2013-04-09 21:18:00,
2013-04-09 14:23:00,52.0,45.7,30.29,SSW,203,0.4,6.7,79,0.00,,,0.00,WUHU216HW,2013-04-09 21:23:00,
2013-04-09 14:28:00,52.2,45.5,30.29,NW,315,1.8,4.0,78,0.00,,,0.00,WUHU216HW,2013-04-09 21:28:00,
2013-04-09 14:33:00,52.6,45.5,30.28,WSW,248,2.7,7.6,77,0.00,,,0.00,WUHU216HW,2013-04-09 21:33:00,
2013-04-09 14:38:00,52.9,45.9,30.28,SW,225,2.5,7.6,77,0.00,,,0.00,WUHU216HW,2013-04-09 21:38:00,
2013-04-09 14:43:00,53.3,45.5,30.29,South,180,2.0,4.3,75,0.00,,,0.00,WUHU216HW,2013-04-09 21:43:00,
2013-04-09 14:48:00,53.6,45.9,30.29,WSW,248,1.8,4.0,75,0.00,,,0.00,WUHU216HW,2013-04-09 21:48:00,
2013-04-09 14:53:00,54.2,46.1,30.28,SE,135,3.1,5.4,74,0.00,,,0.00,WUHU216HW,2013-04-09 21:53:00,
2013-04-09 14:58:00,54.7,46.6,30.28,SSW,203,3.8,5.8,74,0.00,,,0.00,WUHU216HW,2013-04-09 21:58:00,
2013-04-09 15:03:00,55.3,46.7,30.28,SW,225,6.3,6.3,73,0.00,,,0.00,WUHU216HW,2013-04-09 22:03:00,
2013-04-09 15:08:00,55.8,46.9,30.28,WSW,248,1.1,7.2,72,0.00,,,0.00,WUHU216HW,2013-04-09 22:08:00,
2013-04-09 15:13:00,55.8,46.5,30.28,SSW,203,2.9,7.2,71,0.00,,,0.00,WUHU216HW,2013-04-09 22:13:00,
2013-04-09 15:18:00,56.0,46.0,30.27,SSW,203,2.9,5.4,69,0.00,,,0.00,WUHU216HW,2013-04-09 22:18:00,
2013-04-09 15:23:00,56.5,46.9,30.27,SW,225,4.0,6.3,70,0.00,,,0.00,WUHU216HW,2013-04-09 22:23:00,
2013-04-09 15:28:00,56.3,45.9,30.27,SE,135,2.0,6.3,68,0.00,,,0.00,WUHU216HW,2013-04-09 22:28:00,
2013-04-09 15:33:00,56.0,46.0,30.26,SSE,158,1.6,5.8,69,0.00,,,0.00,WUHU216HW,2013-04-09 22:33:00,
2013-04-09 15:38:00,55.6,45.6,30.26,SW,225,1.3,3.6,69,0.00,,,0.00,WUHU216HW,2013-04-09 22:38:00,
2013-04-09 15:43:00,55.4,44.6,30.26,SSW,203,3.8,5.8,67,0.00,,,0.00,WUHU216HW,2013-04-09 22:43:00,
2013-04-09 15:48:00,55.1,45.1,30.26,SW,225,0.9,5.8,69,0.00,,,0.00,WUHU216HW,2013-04-09 22:48:00,
2013-04-09 15:53:00,55.1,45.1,30.26,SW,225,3.8,6.0,69,0.00,,,0.00,WUHU216HW,2013-04-09 22:53:00,
2013-04-09 15:58:00,54.7,45.2,30.26,SSE,158,0.4,6.0,70,0.00,,,0.00,WUHU216HW,2013-04-09 22:58:00,
2013-04-09 16:03:00,54.9,44.9,30.26,South,180,1.3,4.7,69,0.00,,,0.00,WUHU216HW,2013-04-09 23:03:00,
2013-04-09 16:08:00,54.7,45.2,30.26,WSW,248,3.4,5.4,70,0.00,,,0.00,WUHU216HW,2013-04-09 23:08:00,
2013-04-09 16:13:00,54.4,44.5,30.26,SSW,203,4.9,5.4,69,0.00,,,0.00,WUHU216HW,2013-04-09 23:13:00,
2013-04-09 16:18:00,54.4,44.8,30.26,South,180,1.6,5.4,70,0.00,,,0.00,WUHU216HW,2013-04-09 23:18:00,
2013-04-09 16:23:00,54.0,44.8,30.26,WSW,248,1.8,5.1,71,0.00,,,0.00,WUHU216HW,2013-04-09 23:23:00,
2013-04-09 16:28:00,54.0,44.8,30.26,SSE,158,1.6,4.3,71,0.00,,,0.00,WUHU216HW,2013-04-09 23:28:00,
2013-04-09 16:33:00,54.0,44.8,30.26,SSW,203,2.9,4.3,71,0.00,,,0.00,WUHU216HW,2013-04-09 23:33:00,
2013-04-09 16:38:00,54.0,44.8,30.26,WSW,248,3.6,5.1,71,0.00,,,0.00,WUHU216HW,2013-04-09 23:38:00,
2013-04-09 16:43:00,54.0,44.8,30.26,South,180,0.9,5.1,71,0.00,,,0.00,WUHU216HW,2013-04-09 23:43:00,
2013-04-09 16:48:00,54.0,45.2,30.26,SE,135,1.6,4.7,72,0.00,,,0.00,WUHU216HW,2013-04-09 23:48:00,
2013-04-09 16:53:00,54.0,44.8,30.26,WSW,248,3.4,5.1,71,0.00,,,0.00,WUHU216HW,2013-04-09 23:53:00,
2013-04-09 16:58:00,54.0,45.2,30.26,SE,135,0.7,5.1,72,0.00,,,0.00,WUHU216HW,2013-04-09 23:58:00,
2013-04-09 17:03:00,54.0,45.2,30.26,ESE,113,0.7,3.4,72,0.00,,,0.00,WUHU216HW,2013-04-10 00:03:00,
2013-04-09 17:08:00,54.0,45.6,30.26,SSW,203,0.4,2.0,73,0.00,,,0.00,WUHU216HW,2013-04-10 00:08:00,
2013-04-09 17:13:00,54.2,45.7,30.26,SE,135,0.9,1.8,73,0.00,,,0.00,WUHU216HW,2013-04-10 00:13:00,
2013-04-09 17:18:00,54.4,45.9,30.26,SE,135,0.2,1.8,73,0.00,,,0.00,WUHU216HW,2013-04-10 00:18:00,
2013-04-09 17:23:00,54.4,45.9,30.25,SSE,158,0.0,1.1,73,0.00,,,0.00,WUHU216HW,2013-04-10 00:23:00,
2013-04-09 17:28:00,54.2,45.7,30.26,SE,135,0.4,1.8,73,0.00,,,0.00,WUHU216HW,2013-04-10 00:28:00,
2013-04-09 17:33:00,54.2,45.7,30.25,SW,225,2.0,2.0,73,0.00,,,0.00,WUHU216HW,2013-04-10 00:33:00,
2013-04-09 17:38:00,54.0,45.6,30.26,WSW,248,0.7,2.9,73,0.00,,,0.00,WUHU216HW,2013-04-10 00:38:00,
2013-04-09 17:43:00,54.0,45.6,30.26,WSW,248,2.0,2.9,73,0.00,,,0.00,WUHU216HW,2013-04-10 00:43:00,
2013-04-09 17:48:00,53.8,45.4,30.25,SSE,158,0.4,2.9,73,0.00,,,0.00,WUHU216HW,2013-04-10 00:48:00,
2013-04-09 17:53:00,53.8,45.4,30.25,SW,225,0.0,2.9,73,0.00,,,0.00,WUHU216HW,2013-04-10 00:53:00,
2013-04-09 17:58:00,53.6,45.2,30.25,SSW,203,0.9,2.2,73,0.00,,,0.00,WUHU216HW,2013-04-10 00:58:00,
2013-04-09 18:03:00,53.5,45.0,30.25,SSW,203,0.4,2.2,73,0.00,,,0.00,WUHU216HW,2013-04-10 01:03:00,
2013-04-09 18:08:00,53.5,45.0,30.25,WSW,248,1.1,1.8,73,0.00,,,0.00,WUHU216HW,2013-04-10 01:08:00,
2013-04-09 18:13:00,53.3,44.8,30.25,SW,225,0.0,2.0,73,0.00,,,0.00,WUHU216HW,2013-04-10 01:13:00,
2013-04-09 18:18:00,53.3,44.8,30.25,SSE,158,0.2,2.0,73,0.00,,,0.00,WUHU216HW,2013-04-10 01:18:00,
2013-04-09 18:23:00,53.1,45.0,30.25,SSW,203,0.4,0.7,74,0.00,,,0.00,WUHU216HW,2013-04-10 01:23:00,
2013-04-09 18:28:00,53.1,45.0,30.25,SE,135,0.4,1.1,74,0.00,,,0.00,WUHU216HW,2013-04-10 01:28:00,
2013-04-09 18:33:00,52.9,44.8,30.25,SSE,158,0.0,1.1,74,0.00,,,0.00,WUHU216HW,2013-04-10 01:33:00,
2013-04-09 18:38:00,52.7,44.7,30.24,SSE,158,0.0,0.7,74,0.00,,,0.00,WUHU216HW,2013-04-10 01:38:00,
2013-04-09 18:43:00,52.7,45.0,30.23,SW,225,0.0,1.1,75,0.00,,,0.00,WUHU216HW,2013-04-10 01:43:00,
2013-04-09 18:48:00,52.6,44.9,30.23,SSW,203,0.2,1.1,75,0.00,,,0.00,WUHU216HW,2013-04-10 01:48:00,
2013-04-09 18:53:00,52.6,44.9,30.23,SW,225,0.2,0.4,75,0.00,,,0.00,WUHU216HW,2013-04-10 01:53:00,
2013-04-09 18:58:00,52.4,45.1,30.23,WSW,248,0.9,0.9,76,0.00,,,0.00,WUHU216HW,2013-04-10 01:58:00,
2013-04-09 19:03:00,52.2,44.9,30.23,SSW,203,0.4,2.2,76,0.00,,,0.00,WUHU216HW,2013-04-10 02:03:00,
2013-04-09 19:08:00,52.2,44.9,30.22,SW,225,0.0,2.2,76,0.00,,,0.00,WUHU216HW,2013-04-10 02:08:00,
2013-04-09 19:13:00,52.0,44.7,30.22,SW,225,0.0,0.9,76,0.00,,,0.00,WUHU216HW,2013-04-10 02:13:00,
2013-04-09 19:18:00,51.8,44.6,30.22,SSW,203,0.2,1.8,76,0.00,,,0.00,WUHU216HW,2013-04-10 02:18:00,
2013-04-09 19:23:00,51.8,44.6,30.22,SSW,203,0.2,1.8,76,0.00,,,0.00,WUHU216HW,2013-04-10 02:23:00,
2013-04-09 19:28:00,51.8,44.9,30.21,SW,225,0.4,0.9,77,0.00,,,0.00,WUHU216HW,2013-04-10 02:28:00,
2013-04-09 19:33:00,51.7,44.7,30.21,SW,225,0.2,0.9,77,0.00,,,0.00,WUHU216HW,2013-04-10 02:33:00,
2013-04-09 19:38:00,51.5,44.6,30.21,SW,225,0.0,0.9,77,0.00,,,0.00,WUHU216HW,2013-04-10 02:38:00,
2013-04-09 19:43:00,51.5,44.6,30.21,SSW,203,0.9,0.9,77,0.00,,,0.00,WUHU216HW,2013-04-10 02:43:00,
2013-04-09 19:48:00,51.5,44.6,30.21,SW,225,0.0,1.6,77,0.00,,,0.00,WUHU216HW,2013-04-10 02:48:00,
2013-04-09 19:53:00,51.5,44.6,30.21,SW,225,0.0,1.6,77,0.00,,,0.00,WUHU216HW,2013-04-10 02:53:00,
2013-04-09 19:58:00,51.3,44.6,30.21,SW,225,0.7,0.9,78,0.00,,,0.00,WUHU216HW,2013-04-10 02:58:00,
2013-04-09 20:03:00,51.1,44.5,30.21,SSW,203,0.2,0.9,78,0.00,,,0.00,WUHU216HW,2013-04-10 03:03:00,
2013-04-09 20:08:00,50.9,44.3,30.21,SW,225,0.9,1.1,78,0.00,,,0.00,WUHU216HW,2013-04-10 03:08:00,
2013-04-09 20:13:00,50.8,44.1,30.21,SW,225,1.1,1.8,78,0.00,,,0.00,WUHU216HW,2013-04-10 03:13:00,
2013-04-09 20:18:00,50.8,44.1,30.21,SW,225,0.7,1.8,78,0.00,,,0.00,WUHU216HW,2013-04-10 03:18:00,
2013-04-09 20:23:00,50.8,44.5,30.21,SW,225,1.1,1.3,79,0.00,,,0.00,WUHU216HW,2013-04-10 03:23:00,
2013-04-09 20:28:00,50.6,44.3,30.21,SW,225,0.7,1.3,79,0.00,,,0.00,WUHU216HW,2013-04-10 03:28:00,
2013-04-09 20:33:00,50.6,44.3,30.21,WSW,248,1.1,1.1,79,0.00,,,0.00,WUHU216HW,2013-04-10 03:33:00,
2013-04-09 20:38:00,50.4,44.1,30.21,SW,225,0.0,2.0,79,0.00,,,0.00,WUHU216HW,2013-04-10 03:38:00,
2013-04-09 20:43:00,50.4,44.1,30.21,SSW,203,0.2,2.0,79,0.00,,,0.00,WUHU216HW,2013-04-10 03:43:00,
2013-04-09 20:48:00,50.4,44.5,30.20,WSW,248,0.0,1.8,80,0.00,,,0.00,WUHU216HW,2013-04-10 03:48:00,
2013-04-09 20:53:00,50.4,44.5,30.20,SW,225,1.1,1.1,80,0.00,,,0.00,WUHU216HW,2013-04-10 03:53:00,
2013-04-09 20:58:00,50.4,44.1,30.20,SSW,203,0.2,2.2,79,0.00,,,0.00,WUHU216HW,2013-04-10 03:58:00,
2013-04-09 21:00:00,50.4,44.1,30.21,SSW,203,0.4,2.2,79,0.00,,,0.00,WUHU216HW,2013-04-10 04:00:00,
2013-04-09 21:05:00,50.4,44.1,30.20,WSW,248,0.7,2.2,79,0.00,,,0.00,WUHU216HW,2013-04-10 04:05:00,
2013-04-09 21:10:00,50.4,44.5,30.20,SW,225,0.9,1.8,80,0.00,,,0.00,WUHU216HW,2013-04-10 04:10:00,
2013-04-09 21:15:00,50.2,44.3,30.20,SW,225,1.1,1.8,80,0.00,,,0.00,WUHU216HW,2013-04-10 04:15:00,
2013-04-09 21:20:00,50.2,44.3,30.20,West,270,0.4,1.8,80,0.00,,,0.00,WUHU216HW,2013-04-10 04:20:00,
2013-04-09 21:25:00,50.0,44.1,30.20,WSW,248,0.4,1.3,80,0.00,,,0.00,WUHU216HW,2013-04-10 04:25:00,
2013-04-09 21:30:00,50.0,44.1,30.20,SW,225,0.0,2.2,80,0.00,,,0.00,WUHU216HW,2013-04-10 04:30:00,
2013-04-09 21:35:00,50.0,44.1,30.20,WSW,248,0.2,2.2,80,0.00,,,0.00,WUHU216HW,2013-04-10 04:35:00,
2013-04-09 21:40:00,50.0,44.1,30.20,WSW,248,0.2,2.0,80,0.00,,,0.00,WUHU216HW,2013-04-10 04:40:00,
2013-04-09 21:45:00,50.0,44.1,30.20,WSW,248,0.4,2.0,80,0.00,,,0.00,WUHU216HW,2013-04-10 04:45:00,
2013-04-09 21:50:00,50.0,44.1,30.20,WSW,248,0.4,1.1,80,0.00,,,0.00,WUHU216HW,2013-04-10 04:50:00,
2013-04-09 21:55:00,50.0,44.4,30.20,WSW,248,0.2,1.1,81,0.00,,,0.00,WUHU216HW,2013-04-10 04:55:00,
2013-04-09 22:00:00,50.0,44.4,30.20,SW,225,1.3,1.3,81,0.00,,,0.00,WUHU216HW,2013-04-10 05:00:00,
2013-04-09 22:05:00,49.9,44.2,30.20,SW,225,0.4,1.3,81,0.00,,,0.00,WUHU216HW,2013-04-10 05:05:00,
2013-04-09 22:10:00,49.9,44.2,30.20,SW,225,0.0,1.6,81,0.00,,,0.00,WUHU216HW,2013-04-10 05:10:00,
2013-04-09 22:15:00,49.7,44.0,30.19,SW,225,0.7,1.6,81,0.00,,,0.00,WUHU216HW,2013-04-10 05:15:00,
2013-04-09 22:20:00,49.7,44.0,30.19,SW,225,0.4,2.0,81,0.00,,,0.00,WUHU216HW,2013-04-10 05:20:00,
2013-04-09 22:25:00,49.7,44.0,30.19,SW,225,0.7,2.0,81,0.00,,,0.00,WUHU216HW,2013-04-10 05:25:00,
2013-04-09 22:30:00,49.7,44.4,30.20,SW,225,0.4,0.9,82,0.00,,,0.00,WUHU216HW,2013-04-10 05:30:00,
2013-04-09 22:35:00,49.5,44.2,30.19,SW,225,0.0,0.9,82,0.00,,,0.00,WUHU216HW,2013-04-10 05:35:00,
2013-04-09 22:40:00,49.5,44.2,30.19,SW,225,0.4,0.9,82,0.00,,,0.00,WUHU216HW,2013-04-10 05:40:00,
2013-04-09 22:45:00,49.5,44.2,30.19,SW,225,0.0,0.9,82,0.00,,,0.00,WUHU216HW,2013-04-10 05:45:00,
2013-04-09 22:50:00,49.3,44.0,30.19,SW,225,1.1,1.1,82,0.00,,,0.00,WUHU216HW,2013-04-10 05:50:00,
2013-04-09 22:55:00,49.3,44.0,30.19,SW,225,0.9,1.1,82,0.00,,,0.00,WUHU216HW,2013-04-10 05:55:00,
2013-04-09 23:00:00,49.3,44.0,30.19,SW,225,0.0,1.1,82,0.00,,,0.00,WUHU216HW,2013-04-10 06:00:00,
2013-04-09 23:05:00,49.3,44.0,30.19,SW,225,0.0,1.1,82,0.00,,,0.00,WUHU216HW,2013-04-10 06:05:00,
2013-04-09 23:10:00,49.3,44.0,30.19,WSW,248,2.2,2.2,82,0.00,,,0.00,WUHU216HW,2013-04-10 06:10:00,
2013-04-09 23:15:00,49.3,44.0,30.18,SW,225,0.0,2.2,82,0.00,,,0.00,WUHU216HW,2013-04-10 06:15:00,
2013-04-09 23:20:00,49.3,44.0,30.17,SW,225,0.2,2.5,82,0.00,,,0.00,WUHU216HW,2013-04-10 06:20:00,
2013-04-09 23:25:00,49.1,43.8,30.17,WSW,248,0.0,2.5,82,0.00,,,0.00,WUHU216HW,2013-04-10 06:25:00,
2013-04-09 23:30:00,49.3,44.0,30.17,WSW,248,0.4,1.3,82,0.00,,,0.00,WUHU216HW,2013-04-10 06:30:00,
2013-04-09 23:35:00,49.3,44.0,30.17,SW,225,2.2,2.2,82,0.00,,,0.00,WUHU216HW,2013-04-10 06:35:00,
2013-04-09 23:40:00,49.3,44.0,30.16,WSW,248,1.3,2.2,82,0.00,,,0.00,WUHU216HW,2013-04-10 06:40:00,
2013-04-09 23:45:00,49.3,44.0,30.16,WSW,248,1.3,2.2,82,0.00,,,0.00,WUHU216HW,2013-04-10 06:45:00,
2013-04-09 23:50:00,49.3,44.0,30.16,WSW,248,1.1,2.0,82,0.00,,,0.00,WUHU216HW,2013-04-10 06:50:00,
2013-04-09 23:55:00,49.3,44.0,30.17,SW,225,0.4,2.5,82,0.00,,,0.00,WUHU216HW,2013-04-10 06:55:00,